SUI weather

San Luis Airport
Mexicali, Baja California, Mexico

Public forecast

Using degrees Celsius for public forecast. Weather courtesy of forecast.io.

METAR (pilot weather report)

Closest report is General Rodolfo Sánchez Taboada International Airport, 9.3 nm (17.1 km) NNW. Retrieved 2019/08/21 23:41 UTC (0 seconds ago):

MMML 212341Z 06002KT 10SM SKC 45/M03 A2961 RMK SLP027 57023 977

TAF (pilot weather forecast)

Closest forecast is General Rodolfo Sánchez Taboada International Airport, 9.3 nm (17.1 km) NNW. Retrieved 2019/08/21 18:06 UTC (5 hours ago):

TAF MMML 211705Z 2118/2218 33010KT P6SM SKC FM220300 33005KT P6SM SKC FM221800 33010KT P6SM SKC